Time;durP1;ratioP1;P1;durP2;ratioP2;P2;SDS_P1;SDS_P2;PMS_P1;PMS_P2;Temp;Humidity;BMP_temperature;BMP_pressure;BME280_temperature;BME280_humidity;BME280_pressure;Samples;Min_cycle;Max_cycle;Signal;HPM_P1;HPM_P2
2022/09/05 00:00:04;;;;;;;11.98;8.25;;;486.90;2380.80;;;;;;5039090;28;20021;-82
2022/09/05 00:02:48;;;;;;;10.43;8.13;;;486.70;2048.00;;;;;;5043623;28;20033;-81
2022/09/05 00:05:38;;;;;;;12.05;8.60;;;486.70;2380.80;;;;;;5048250;28;20021;-81
2022/09/05 00:08:10;;;;;;;13.02;9.30;;;486.70;2380.80;;;;;;5044529;28;20025;-83
2022/09/05 00:10:54;;;;;;;18.20;9.25;;;486.70;2380.80;;;;;;5045515;28;20037;-84
2022/09/05 00:13:24;;;;;;;16.85;9.15;;;486.80;2380.80;;;;;;5075178;28;20033;-82
2022/09/05 00:16:07;;;;;;;15.10;9.55;;;486.60;2380.80;;;;;;5042422;28;20035;-81
2022/09/05 00:18:49;;;;;;;18.40;9.85;;;486.70;2380.80;;;;;;5039921;28;20044;-82
2022/09/05 00:21:39;;;;;;;13.90;9.32;;;486.70;2380.80;;;;;;5039635;28;20467;-80
2022/09/05 00:24:05;;;;;;;13.75;9.60;;;486.60;2380.80;;;;;;5046336;28;20089;-83
2022/09/05 00:26:33;;;;;;;12.95;9.38;;;486.50;2380.80;;;;;;5038941;28;20037;-83
2022/09/05 00:29:30;;;;;;;9.93;8.13;;;486.60;2380.80;;;;;;5040519;28;20024;-83
2022/09/05 00:32:18;;;;;;;10.55;8.77;;;486.60;2380.80;;;;;;5046299;28;20029;-80
2022/09/05 00:34:56;;;;;;;14.35;9.10;;;486.70;2380.80;;;;;;5040286;28;20505;-83
2022/09/05 00:37:35;;;;;;;13.98;10.00;;;486.70;2380.80;;;;;;5043326;28;20069;-83
2022/09/05 00:40:32;;;;;;;10.77;9.43;;;486.70;2380.80;;;;;;5039842;28;20025;-83
2022/09/05 00:43:02;;;;;;;13.25;9.88;;;486.70;2380.80;;;;;;5042751;28;20029;-84
2022/09/05 00:45:34;;;;;;;13.07;9.60;;;486.60;2380.80;;;;;;5045691;28;20083;-81
2022/09/05 00:48:35;;;;;;;13.52;9.98;;;486.60;2380.80;;;;;;5040187;28;20036;-82
2022/09/05 00:51:22;;;;;;;13.70;8.95;;;486.60;2380.80;;;;;;5033787;28;20040;-81
2022/09/05 00:54:01;;;;;;;14.00;9.15;;;486.60;2380.80;;;;;;5046264;28;20037;-83
2022/09/05 00:56:45;;;;;;;15.82;11.70;;;486.60;2380.80;;;;;;5041012;28;20041;-81
2022/09/05 00:59:50;;;;;;;17.85;12.18;;;486.60;2380.80;;;;;;5045673;28;20021;-82
2022/09/05 01:02:41;;;;;;;16.75;12.48;;;486.70;2380.80;;;;;;5042251;28;20037;-82
2022/09/05 01:05:34;;;;;;;17.48;11.32;;;486.50;2380.80;;;;;;5043882;28;20021;-82
2022/09/05 01:09:00;;;;;;;17.15;12.48;;;486.50;2380.80;;;;;;5044684;28;20080;-82
2022/09/05 01:11:37;;;;;;;15.68;10.68;;;486.40;2380.80;;;;;;5033698;28;20028;-81
2022/09/05 01:14:30;;;;;;;16.17;10.77;;;461.70;2380.80;;;;;;5051053;28;20036;-81
2022/09/05 01:17:33;;;;;;;18.58;11.57;;;486.40;2380.80;;;;;;5036446;28;20124;-82
2022/09/05 01:20:09;;;;;;;18.67;10.88;;;486.50;2380.80;;;;;;5039853;28;20599;-82
2022/09/05 01:22:45;;;;;;;15.95;11.75;;;486.50;2380.80;;;;;;5036908;28;20039;-82
2022/09/05 01:25:39;;;;;;;17.58;11.68;;;486.50;2380.80;;;;;;5072099;28;20475;-82
2022/09/05 01:28:20;;;;;;;19.30;12.65;;;486.40;2380.80;;;;;;5041065;28;20026;-83
2022/09/05 01:31:01;;;;;;;18.52;11.93;;;486.50;2380.80;;;;;;5042926;28;20394;-82
2022/09/05 01:33:54;;;;;;;16.42;10.98;;;486.50;2380.80;;;;;;5042347;28;20025;-81
2022/09/05 01:36:26;;;;;;;;;;;486.50;2380.80;;;;;;5051006;28;20055;-82
2022/09/05 01:39:09;;;;;;;15.38;10.55;;;486.40;2380.80;;;;;;5049335;28;20302;-82
2022/09/05 01:42:00;;;;;;;14.38;10.77;;;486.40;2380.80;;;;;;5045756;28;20029;-83
2022/09/05 01:44:50;;;;;;;15.77;10.80;;;486.40;2380.80;;;;;;5054999;28;20478;-82
2022/09/05 01:47:38;;;;;;;16.15;11.52;;;486.40;2380.80;;;;;;5041906;28;20033;-83
2022/09/05 01:50:11;;;;;;;15.05;12.23;;;486.40;2380.80;;;;;;5041799;28;20053;-82
2022/09/05 01:53:13;;;;;;;20.27;13.90;;;486.50;2380.80;;;;;;5041823;28;20029;-82
2022/09/05 01:56:09;;;;;;;16.25;12.18;;;486.50;2380.80;;;;;;5047983;28;20029;-82
2022/09/05 01:58:38;;;;;;;14.00;11.88;;;486.50;2380.80;;;;;;5046884;28;20033;-82
2022/09/05 02:01:26;;;;;;;18.13;11.05;;;486.40;2380.80;;;;;;5046493;28;20029;-82
2022/09/05 02:04:20;;;;;;;19.55;12.05;;;461.70;2380.80;;;;;;5045444;28;20030;-82
2022/09/05 02:06:55;;;;;;;16.02;11.48;;;461.60;2380.80;;;;;;5053380;28;20033;-82
2022/09/05 02:09:48;;;;;;;12.60;10.18;;;461.60;2380.80;;;;;;5042615;28;20025;-82
2022/09/05 02:12:13;;;;;;;;;;;461.60;2380.80;;;;;;5047232;28;20111;-82
2022/09/05 02:15:05;;;;;;;17.60;10.88;;;461.60;2380.80;;;;;;5044633;28;20035;-82
2022/09/05 02:17:40;;;;;;;15.18;10.27;;;461.50;2380.80;;;;;;5045815;28;20053;-83
2022/09/05 02:20:12;;;;;;;17.02;13.20;;;461.30;2380.80;;;;;;5034621;28;20040;-83
2022/09/05 02:22:45;;;;;;;22.92;14.07;;;461.40;2380.80;;;;;;5034369;28;20025;-82
2022/09/05 02:25:27;;;;;;;23.30;14.18;;;461.50;2380.80;;;;;;5044451;28;20030;-82
2022/09/05 02:28:08;;;;;;;19.10;12.63;;;461.60;2380.80;;;;;;5041227;28;20117;-82
2022/09/05 02:30:41;;;;;;;16.92;12.32;;;461.40;2380.80;;;;;;5049071;28;20033;-82
2022/09/05 02:33:10;;;;;;;;;;;461.40;2380.80;;;;;;5045003;28;20116;-82
2022/09/05 02:35:58;;;;;;;15.63;11.20;;;461.40;2380.80;;;;;;5040016;28;19917;-82
2022/09/05 02:39:00;;;;;;;13.57;11.15;;;461.40;2380.80;;;;;;5043595;28;20034;-82
2022/09/05 02:41:44;;;;;;;17.40;11.02;;;461.40;2380.80;;;;;;5047009;28;20036;-81
2022/09/05 02:44:35;;;;;;;16.73;12.30;;;461.40;2380.80;;;;;;5054152;28;20025;-82
2022/09/05 02:47:39;;;;;;;16.80;13.20;;;461.40;2380.80;;;;;;5047619;28;20041;-82
2022/09/05 02:50:19;;;;;;;16.85;14.25;;;461.40;2380.80;;;;;;5029478;28;20513;-82
2022/09/05 02:52:47;;;;;;;19.58;13.30;;;461.40;2380.80;;;;;;5047310;28;20083;-82
2022/09/05 02:55:45;;;;;;;17.15;14.43;;;461.40;2380.80;;;;;;5048845;28;20017;-82
2022/09/05 02:58:29;;;;;;;20.48;13.85;;;461.40;2380.80;;;;;;5048629;28;20045;-83
2022/09/05 03:01:19;;;;;;;20.52;14.40;;;461.40;2380.80;;;;;;5042662;28;20021;-81
2022/09/05 03:03:51;;;;;;;24.20;16.10;;;461.50;2380.80;;;;;;5054072;28;20044;-82
2022/09/05 03:06:49;;;;;;;29.27;18.75;;;461.50;2380.80;;;;;;5052448;28;20017;-81
2022/09/05 03:09:43;;;;;;;34.33;18.65;;;461.50;2380.80;;;;;;5010956;28;20054;-81
2022/09/05 03:12:39;;;;;;;26.05;18.58;;;461.50;2380.80;;;;;;5046241;28;20069;-81
2022/09/05 03:15:17;;;;;;;30.38;20.13;;;461.50;2380.80;;;;;;5040187;28;20072;-82
2022/09/05 03:18:01;;;;;;;28.25;19.08;;;461.30;2380.80;;;;;;5041711;28;20033;-81
2022/09/05 03:21:02;;;;;;;36.05;20.35;;;461.30;2380.80;;;;;;5039149;28;20042;-81
2022/09/05 03:23:49;;;;;;;25.40;17.17;;;461.20;2380.80;;;;;;5042072;28;20026;-82
2022/09/05 03:26:42;;;;;;;24.83;18.60;;;461.20;2380.80;;;;;;5039727;28;20033;-82
2022/09/05 03:29:41;;;;;;;25.58;18.13;;;461.30;2380.80;;;;;;5040052;28;20216;-80
2022/09/05 03:32:32;;;;;;;31.60;18.90;;;461.30;2380.80;;;;;;5047473;28;20033;-81
2022/09/05 03:35:19;;;;;;;28.23;19.38;;;461.30;2380.80;;;;;;5040029;28;20033;-81
2022/09/05 03:38:00;;;;;;;27.23;18.83;;;461.10;2380.80;;;;;;5044342;28;20041;-82
2022/09/05 03:40:52;;;;;;;27.85;18.20;;;461.20;2380.80;;;;;;5042036;28;20037;-83
2022/09/05 03:43:50;;;;;;;35.65;19.02;;;461.20;2380.80;;;;;;5045224;28;20030;-85
2022/09/05 03:46:25;;;;;;;38.45;19.02;;;461.30;2380.80;;;;;;5041569;28;20075;-82
2022/09/05 03:49:27;;;;;;;23.67;17.45;;;461.20;2380.80;;;;;;5044705;28;20474;-83
2022/09/05 03:52:18;;;;;;;18.30;14.55;;;461.30;2380.80;;;;;;5038795;28;20029;-82
2022/09/05 03:54:53;;;;;;;21.30;14.50;;;461.40;2380.80;;;;;;5045993;28;20043;-82
2022/09/05 03:57:27;;;;;;;18.52;13.23;;;461.30;2380.80;;;;;;5048375;28;20035;-83
2022/09/05 04:00:08;;;;;;;20.67;13.25;;;461.30;2380.80;;;;;;5046355;28;20021;-82
2022/09/05 04:02:57;;;;;;;25.55;17.48;;;461.30;2380.80;;;;;;5047336;28;20387;-82
2022/09/05 04:05:28;;;;;;;25.65;17.52;;;461.20;2380.80;;;;;;5042647;28;20036;-84
2022/09/05 04:08:00;;;;;;;25.02;16.30;;;461.30;2380.80;;;;;;5032878;28;20033;-82
2022/09/05 04:10:49;;;;;;;20.58;15.75;;;461.10;2380.80;;;;;;5032213;28;20028;-82
2022/09/05 04:13:44;;;;;;;20.02;15.73;;;460.80;2380.80;;;;;;5044405;28;20021;-82
2022/09/05 04:16:19;;;;;;;22.15;15.63;;;436.10;2355.20;;;;;;5038651;28;20068;-83
2022/09/05 04:19:09;;;;;;;21.23;15.50;;;460.90;2380.80;;;;;;5072898;28;20406;-81
2022/09/05 04:21:43;;;;;;;20.15;13.80;;;461.00;2380.80;;;;;;5049092;28;20053;-83
2022/09/05 04:24:22;;;;;;;20.42;14.50;;;461.00;2380.80;;;;;;5049134;28;20471;-83
2022/09/05 04:27:43;;;;;;;22.33;13.98;;;461.10;2380.80;;;;;;5038424;28;20076;-83
2022/09/05 04:30:36;;;;;;;21.70;14.90;;;461.20;2380.80;;;;;;5010984;28;20037;-82
2022/09/05 04:33:28;;;;;;;16.42;13.55;;;461.20;2380.80;;;;;;5078772;28;20021;-82
2022/09/05 04:36:12;;;;;;;22.58;15.50;;;461.30;2380.80;;;;;;5037953;28;20578;-81
2022/09/05 04:38:41;;;;;;;17.92;14.63;;;461.30;2380.80;;;;;;5044174;28;20045;-82
2022/09/05 04:41:16;;;;;;;22.95;15.70;;;461.10;2380.80;;;;;;5042097;28;20033;-83
2022/09/05 04:43:52;;;;;;;20.75;16.38;;;461.20;2380.80;;;;;;5052771;28;20462;-82
2022/09/05 04:46:42;;;;;;;25.90;18.10;;;461.10;2380.80;;;;;;5050701;28;20036;-82
2022/09/05 04:49:20;;;;;;;24.02;16.65;;;461.20;2380.80;;;;;;5041878;28;20522;-83
2022/09/05 04:51:55;;;;;;;20.30;16.23;;;461.30;2380.80;;;;;;5045136;28;20028;-82
2022/09/05 04:54:33;;;;;;;22.85;16.92;;;461.40;2380.80;;;;;;5041642;28;20025;-82
2022/09/05 04:57:34;;;;;;;21.73;16.42;;;461.50;2380.80;;;;;;5042445;28;20037;-83
2022/09/05 05:00:24;;;;;;;26.73;18.65;;;461.30;2380.80;;;;;;5040486;28;20041;-82
2022/09/05 05:02:55;;;;;;;27.35;19.27;;;461.40;2380.80;;;;;;5045680;28;20071;-84
2022/09/05 05:05:45;;;;;;;28.38;19.52;;;460.90;2380.80;;;;;;5043278;28;20029;-84
2022/09/05 05:08:29;;;;;;;26.23;18.60;;;461.50;2380.80;;;;;;5039201;28;20040;-83
2022/09/05 05:11:02;;;;;;;23.60;17.30;;;461.60;2380.80;;;;;;5049743;28;20618;-83
2022/09/05 05:13:45;;;;;;;24.75;15.98;;;461.60;2380.80;;;;;;5043919;28;20041;-83
2022/09/05 05:16:36;;;;;;;22.13;16.05;;;461.50;2380.80;;;;;;5052946;28;20020;-83
2022/09/05 05:19:09;;;;;;;29.98;23.33;;;461.50;2380.80;;;;;;5048614;28;20080;-82
2022/09/05 05:21:35;;;;;;;28.23;21.27;;;461.40;2380.80;;;;;;5045259;28;20068;-84
2022/09/05 05:24:12;;;;;;;23.27;18.42;;;461.50;2380.80;;;;;;5078285;28;20029;-81
2022/09/05 05:26:50;;;;;;;17.70;13.98;;;461.60;2380.80;;;;;;5049057;28;20119;-83
2022/09/05 05:29:47;;;;;;;21.52;14.57;;;461.60;2380.80;;;;;;5049340;28;20029;-83
2022/09/05 05:32:24;;;;;;;17.67;12.32;;;461.70;2380.80;;;;;;5043407;28;20033;-79
2022/09/05 05:34:59;;;;;;;15.20;11.75;;;461.70;2380.80;;;;;;5045243;28;20032;-82
2022/09/05 05:37:55;;;;;;;14.40;10.88;;;486.40;2380.80;;;;;;5050716;28;20041;-84
2022/09/05 05:40:30;;;;;;;14.30;11.65;;;486.50;2355.20;;;;;;5046694;28;20040;-83
2022/09/05 05:43:17;;;;;;;14.23;11.98;;;486.50;2380.80;;;;;;5046186;28;20021;-82
2022/09/05 05:45:43;;;;;;;17.45;12.40;;;486.40;2380.80;;;;;;5045791;28;20029;-82
2022/09/05 05:48:18;;;;;;;14.40;11.85;;;486.40;2380.80;;;;;;5055745;28;20043;-81
2022/09/05 05:50:50;;;;;;;16.42;12.48;;;486.50;2380.80;;;;;;5054051;28;20630;-83
2022/09/05 05:53:34;;;;;;;;;;;486.40;2380.80;;;;;;5045243;28;20387;-83
2022/09/05 05:56:22;;;;;;;16.67;12.75;;;486.50;2380.80;;;;;;5044913;28;19944;-83
2022/09/05 05:59:13;;;;;;;16.42;12.30;;;486.50;2380.80;;;;;;5046164;28;20045;-84
2022/09/05 06:01:51;;;;;;;14.10;11.85;;;486.50;2380.80;;;;;;5037351;28;20400;-81
2022/09/05 06:04:35;;;;;;;17.38;13.52;;;486.50;2380.80;;;;;;5043602;28;20036;-82
2022/09/05 06:07:29;;;;;;;17.50;12.23;;;486.40;2380.80;;;;;;5043341;28;20792;-82
2022/09/05 06:10:20;;;;;;;20.17;12.68;;;486.50;2380.80;;;;;;5049164;28;20021;-81
2022/09/05 06:13:27;;;;;;;20.48;12.85;;;486.50;2380.80;;;;;;5038681;28;20029;-81
2022/09/05 06:16:37;;;;;;;17.58;11.50;;;486.70;2380.80;;;;;;5043891;28;20022;-83
2022/09/05 06:19:15;;;;;;;15.20;11.82;;;486.80;2380.80;;;;;;5028733;28;20487;-83
2022/09/05 06:22:18;;;;;;;17.23;12.35;;;486.80;2150.40;;;;;;5007714;28;20030;-82
2022/09/05 06:24:59;;;;;;;16.42;11.52;;;486.70;2380.80;;;;;;5042353;28;20061;-82
2022/09/05 06:27:35;;;;;;;13.82;10.52;;;486.80;2380.80;;;;;;5039400;28;20034;-82
2022/09/05 06:30:13;;;;;;;16.15;10.90;;;486.80;2380.80;;;;;;5045976;28;20017;-82
2022/09/05 06:33:07;;;;;;;12.27;10.20;;;486.90;2380.80;;;;;;5048145;28;20029;-84
2022/09/05 06:36:17;;;;;;;13.95;9.30;;;487.00;2380.80;;;;;;5049324;28;20041;-83
2022/09/05 06:39:25;;;;;;;12.68;9.95;;;487.10;2380.80;;;;;;5075193;28;20051;-85
2022/09/05 06:41:53;;;;;;;15.35;9.75;;;487.20;2380.80;;;;;;5037785;28;20446;-83
2022/09/05 06:45:03;;;;;;;14.18;9.55;;;487.20;2380.80;;;;;;5035264;28;20028;-83
2022/09/05 06:47:31;;;;;;;12.85;9.70;;;487.30;2380.80;;;;;;5034653;28;21601;-83
2022/09/05 06:50:10;;;;;;;15.48;9.20;;;487.30;2380.80;;;;;;5046326;28;20029;-83
2022/09/05 06:52:57;;;;;;;14.15;9.40;;;487.20;2380.80;;;;;;5044279;28;20060;-82
2022/09/05 06:55:51;;;;;;;12.75;10.40;;;487.30;2380.80;;;;;;5047929;28;20056;-83
2022/09/05 06:58:35;;;;;;;16.10;11.95;;;487.30;2380.80;;;;;;5040413;28;20033;-83
2022/09/05 07:01:03;;;;;;;14.25;10.75;;;487.30;2380.80;;;;;;5043506;28;20127;-82
2022/09/05 07:04:11;;;;;;;11.70;9.43;;;487.30;2380.80;;;;;;5037333;28;20037;-83
2022/09/05 07:06:57;;;;;;;11.93;7.85;;;487.30;2380.80;;;;;;5045122;28;20032;-83
2022/09/05 07:09:41;;;;;;;10.25;7.57;;;487.20;2380.80;;;;;;5023945;28;20033;-83
2022/09/05 07:12:25;;;;;;;9.32;7.35;;;487.30;2380.80;;;;;;5043822;28;20029;-82
2022/09/05 07:15:10;;;;;;;11.82;8.30;;;512.00;2380.80;;;;;;5077658;28;20036;-82
2022/09/05 07:17:46;;;;;;;15.15;7.55;;;512.00;2380.80;;;;;;5072894;28;20048;-84
2022/09/05 07:20:33;;;;;;;16.30;8.23;;;512.00;2380.80;;;;;;5047141;28;20082;-84
2022/09/05 07:23:09;;;;;;;18.40;8.68;;;512.10;2380.80;;;;;;5078873;28;20060;-82
2022/09/05 07:25:35;;;;;;;14.63;8.02;;;512.10;2380.80;;;;;;5045127;28;20061;-82
2022/09/05 07:28:09;;;;;;;15.85;9.00;;;512.10;2380.80;;;;;;5043327;28;20417;-82
2022/09/05 07:30:45;;;;;;;12.43;8.35;;;512.20;2380.80;;;;;;5042527;28;20025;-83
2022/09/05 07:33:16;;;;;;;16.65;8.88;;;512.20;2380.80;;;;;;5048664;28;22607;-82
2022/09/05 07:35:42;;;;;;;13.70;9.30;;;512.20;2380.80;;;;;;5034404;28;20061;-83
2022/09/05 07:38:36;;;;;;;13.07;9.07;;;512.30;2380.80;;;;;;5047221;28;20398;-83
2022/09/05 07:41:11;;;;;;;9.43;7.45;;;512.40;2380.80;;;;;;5045573;28;20033;-83
2022/09/05 07:43:39;;;;;;;10.98;8.15;;;512.40;2380.80;;;;;;5045264;28;20024;-83
2022/09/05 07:46:11;;;;;;;13.10;8.25;;;512.40;2380.80;;;;;;5044363;28;20025;-81
2022/09/05 07:48:42;;;;;;;13.33;8.67;;;512.40;2380.80;;;;;;5050633;28;20033;-83
2022/09/05 07:51:15;;;;;;;12.82;8.25;;;512.40;2380.80;;;;;;5052437;28;20021;-80
2022/09/05 07:53:43;;;;;;;12.50;9.70;;;512.60;2380.80;;;;;;5041754;28;20036;-82
2022/09/05 07:56:09;;;;;;;11.25;7.95;;;512.50;2380.80;;;;;;5040507;28;20033;-82
2022/09/05 07:58:43;;;;;;;13.32;8.48;;;512.70;2380.80;;;;;;5045292;28;20040;-80
2022/09/05 08:01:11;;;;;;;14.45;8.68;;;512.70;2380.80;;;;;;5038751;28;20051;-81
2022/09/05 08:03:37;;;;;;;11.13;7.47;;;512.80;2380.80;;;;;;5039881;28;20025;-81
2022/09/05 08:06:22;;;;;;;11.50;7.25;;;512.70;2380.80;;;;;;5044030;28;20585;-80
2022/09/05 08:09:14;;;;;;;9.30;6.95;;;512.70;2380.80;;;;;;5039067;28;20035;-80
2022/09/05 08:11:41;;;;;;;11.13;7.60;;;512.70;2380.80;;;;;;5035250;28;20030;-79
2022/09/05 08:14:32;;;;;;;9.43;6.88;;;512.80;2380.80;;;;;;5053642;28;20036;-82
2022/09/05 08:16:58;;;;;;;10.85;7.13;;;512.90;2380.80;;;;;;5051789;28;20108;-81
2022/09/05 08:19:38;;;;;;;10.70;7.40;;;512.90;2380.80;;;;;;5049864;28;20036;-83
2022/09/05 08:22:08;;;;;;;8.65;6.40;;;537.60;2406.40;;;;;;5070143;28;20578;-85
2022/09/05 08:24:45;;;;;;;12.10;7.20;;;537.60;2406.40;;;;;;5045082;28;20025;-82
2022/09/05 08:27:27;;;;;;;11.52;7.25;;;537.70;2406.40;;;;;;5046826;28;20036;-81
2022/09/05 08:30:09;;;;;;;11.90;7.20;;;537.80;2406.40;;;;;;5046626;28;20059;-82
2022/09/05 08:32:51;;;;;;;12.75;6.90;;;537.80;2406.40;;;;;;5045831;28;20029;-82
2022/09/05 08:35:51;;;;;;;17.10;14.30;;;537.70;2406.40;;;;;;5051425;28;20025;-82
2022/09/05 08:38:18;;;;;;;13.68;11.40;;;537.80;2406.40;;;;;;5035722;28;20044;-80
2022/09/05 08:41:03;;;;;;;16.77;12.73;;;538.00;2406.40;;;;;;5066627;28;20033;-80
2022/09/05 08:43:31;;;;;;;10.93;8.35;;;538.20;2406.40;;;;;;5042598;28;20064;-81
2022/09/05 08:46:02;;;;;;;12.73;6.70;;;538.30;2406.40;;;;;;5050700;28;20021;-82
2022/09/05 08:49:02;;;;;;;10.95;7.32;;;538.40;2406.40;;;;;;5051592;28;20450;-82
2022/09/05 08:51:39;;;;;;;11.93;7.32;;;538.20;2406.40;;;;;;5041778;28;20454;-82
2022/09/05 08:54:11;;;;;;;10.63;7.43;;;538.20;2406.40;;;;;;5044463;28;20037;-82
2022/09/05 08:56:42;;;;;;;9.60;6.82;;;538.10;2406.40;;;;;;5051706;28;20029;-81
2022/09/05 08:59:29;;;;;;;11.00;6.47;;;538.20;2406.40;;;;;;5051461;28;20029;-82
2022/09/05 09:02:04;;;;;;;8.65;6.03;;;538.20;2406.40;;;;;;5036911;28;20029;-82
2022/09/05 09:05:10;;;;;;;7.97;5.97;;;538.10;2406.40;;;;;;5039969;28;20061;-81
2022/09/05 09:07:48;;;;;;;10.43;6.70;;;538.30;2406.40;;;;;;5041018;28;20064;-82
2022/09/05 09:10:39;;;;;;;7.97;6.82;;;538.50;2406.40;;;;;;5045331;28;20025;-83
2022/09/05 09:13:35;;;;;;;8.85;6.60;;;563.20;2432.00;;;;;;5049023;28;20074;-84
2022/09/05 09:16:10;;;;;;;8.95;6.63;;;563.40;2432.00;;;;;;5045132;28;20018;-84
2022/09/05 09:18:47;;;;;;;13.38;5.88;;;563.60;2432.00;;;;;;5047812;28;20445;-84
2022/09/05 09:21:36;;;;;;;8.43;6.13;;;563.50;2432.00;;;;;;5041726;28;20091;-84
2022/09/05 09:24:30;;;;;;;8.05;5.75;;;563.40;2432.00;;;;;;5043752;28;20022;-82
2022/09/05 09:27:03;;;;;;;11.02;6.90;;;563.60;2432.00;;;;;;5042194;28;20117;-85
2022/09/05 09:29:35;;;;;;;13.07;9.10;;;563.60;2432.00;;;;;;5052605;28;20033;-82
2022/09/05 09:32:09;;;;;;;11.68;7.00;;;563.70;2432.00;;;;;;5047939;28;20070;-84
2022/09/05 09:34:50;;;;;;;10.02;7.47;;;563.70;2432.00;;;;;;5071607;28;20037;-84
2022/09/05 09:37:40;;;;;;;15.52;6.25;;;563.70;2432.00;;;;;;5044317;28;20048;-83
2022/09/05 09:40:30;;;;;;;10.88;6.53;;;563.70;2432.00;;;;;;5076577;28;20394;-84
2022/09/05 09:43:19;;;;;;;9.82;5.82;;;563.90;2432.00;;;;;;5045804;28;20025;-83
2022/09/05 09:46:03;;;;;;;7.70;6.47;;;564.10;2432.00;;;;;;5050673;28;20021;-83
2022/09/05 09:48:37;;;;;;;8.73;5.47;;;589.00;2432.00;;;;;;5044915;28;20041;-85
2022/09/05 09:51:12;;;;;;;10.23;5.88;;;589.00;2432.00;;;;;;5040802;28;20024;-83
2022/09/05 09:53:47;;;;;;;8.82;4.95;;;589.20;2432.00;;;;;;5050707;28;20116;-84
2022/09/05 09:56:45;;;;;;;7.15;4.72;;;589.40;2432.00;;;;;;5049828;28;20025;-87
2022/09/05 09:59:42;;;;;;;6.28;5.07;;;589.30;2432.00;;;;;;5042479;28;20430;-83
2022/09/05 10:02:23;;;;;;;9.95;5.20;;;614.40;2432.00;;;;;;5048892;28;20108;-83
2022/09/05 10:05:12;;;;;;;7.80;5.10;;;614.80;2432.00;;;;;;5050896;28;20044;-85
2022/09/05 10:08:15;;;;;;;6.05;4.45;;;614.90;2432.00;;;;;;5051586;28;20040;-84
2022/09/05 10:11:09;;;;;;;8.95;4.00;;;614.80;2432.00;;;;;;5051823;28;20458;-85
2022/09/05 10:14:12;;;;;;;7.80;5.55;;;614.60;2432.00;;;;;;5051987;28;20025;-85
2022/09/05 10:17:10;;;;;;;5.32;4.07;;;614.40;2432.00;;;;;;5046094;28;20701;-84
2022/09/05 10:19:54;;;;;;;16.23;14.55;;;589.70;2432.00;;;;;;5024585;28;20079;-84
2022/09/05 10:22:56;;;;;;;6.55;5.05;;;614.70;2432.00;;;;;;5043886;28;20044;-84
2022/09/05 10:25:35;;;;;;;7.38;4.90;;;;;;;;;;5038640;28;20029;-85
2022/09/05 10:28:04;;;;;;;7.57;4.40;;;;;;;;;;5047318;28;20062;-85
2022/09/05 10:30:39;;;;;;;6.57;5.10;;;;;;;;;;5043935;28;20042;-85
2022/09/05 10:33:12;;;;;;;7.65;4.97;;;;;;;;;;5047539;28;20025;-84
2022/09/05 10:35:49;;;;;;;;;;;665.60;2432.00;;;;;;5047404;28;20140;-85
2022/09/05 10:38:44;;;;;;;6.38;3.90;;;665.60;2432.00;;;;;;5046912;28;19921;-84
2022/09/05 10:41:13;;;;;;;5.28;3.92;;;665.90;2432.00;;;;;;5038720;28;20037;-84
2022/09/05 10:44:12;;;;;;;6.28;4.80;;;666.20;2432.00;;;;;;5046973;28;20025;-85
2022/09/05 10:46:46;;;;;;;6.60;4.28;;;666.40;2432.00;;;;;;5025984;28;20061;-85
2022/09/05 10:49:14;;;;;;;6.13;4.13;;;691.30;2432.00;;;;;;5046144;28;20111;-83
2022/09/05 10:51:59;;;;;;;5.47;4.03;;;691.40;2432.00;;;;;;5054258;28;20454;-83
2022/09/05 10:54:52;;;;;;;8.52;3.80;;;691.60;2432.00;;;;;;5054463;28;20025;-84
2022/09/05 10:57:40;;;;;;;7.97;4.35;;;691.20;2432.00;;;;;;5038013;28;20033;-83
2022/09/05 11:00:28;;;;;;;6.68;4.03;;;691.20;2432.00;;;;;;5042077;28;20021;-84
2022/09/05 11:02:59;;;;;;;4.82;3.55;;;691.20;2432.00;;;;;;5044257;28;20566;-83
2022/09/05 11:05:27;;;;;;;5.20;4.03;;;691.40;2432.00;;;;;;5042737;28;20032;-83
2022/09/05 11:08:00;;;;;;;6.05;3.75;;;691.80;2432.00;;;;;;5042344;28;20483;-82
2022/09/05 11:10:30;;;;;;;6.78;3.70;;;691.90;2432.00;;;;;;5040106;28;20471;-84
2022/09/05 11:13:33;;;;;;;5.47;3.35;;;716.90;2432.00;;;;;;5045082;28;20079;-83
2022/09/05 11:16:08;;;;;;;5.70;3.95;;;717.10;2432.00;;;;;;5044671;28;20470;-82
2022/09/05 11:18:45;;;;;;;5.47;3.60;;;717.50;2380.80;;;;;;5040715;28;20037;-82
2022/09/05 11:21:14;;;;;;;4.20;3.10;;;742.40;2406.40;;;;;;5047703;28;20021;-83
2022/09/05 11:23:44;;;;;;;5.53;3.58;;;717.70;2227.20;;;;;;5043253;28;20029;-83
2022/09/05 11:26:37;;;;;;;6.30;3.58;;;717.60;2355.20;;;;;;5043545;28;20385;-83
2022/09/05 11:29:13;;;;;;;5.55;2.92;;;717.30;2227.20;;;;;;5047378;28;20028;-84
2022/09/05 11:32:13;;;;;;;5.35;2.80;;;716.90;2252.80;;;;;;5039239;28;20025;-82
2022/09/05 11:35:07;;;;;;;6.00;3.40;;;717.50;2329.60;;;;;;5051405;28;20470;-82
2022/09/05 11:37:57;;;;;;;5.05;3.13;;;717.70;2252.80;;;;;;5038071;28;20079;-82
2022/09/05 11:41:12;;;;;;;5.50;3.30;;;742.40;2278.40;;;;;;5038026;28;20021;-83
2022/09/05 11:44:10;;;;;;;4.70;3.25;;;716.90;2355.20;;;;;;5041332;28;20136;-83
2022/09/05 11:47:02;;;;;;;4.85;3.63;;;691.70;2329.60;;;;;;5078052;28;20029;-83
2022/09/05 11:49:46;;;;;;;7.25;3.83;;;691.40;2406.40;;;;;;5051921;28;20032;-83
2022/09/05 11:52:50;;;;;;;5.13;3.47;;;691.70;2329.60;;;;;;5040136;28;20032;-82
2022/09/05 11:55:36;;;;;;;5.35;3.70;;;691.20;2355.20;;;;;;5036901;28;20029;-82
2022/09/05 11:58:20;;;;;;;7.85;3.50;;;666.20;2380.80;;;;;;5037557;28;20037;-83
2022/09/05 12:01:14;;;;;;;5.80;3.42;;;691.50;2355.20;;;;;;5041658;28;20029;-83
2022/09/05 12:03:56;;;;;;;5.43;3.47;;;716.90;2355.20;;;;;;5040254;28;20025;-83
2022/09/05 12:07:01;;;;;;;6.20;3.15;;;717.70;2304.00;;;;;;5040134;28;20033;-82
2022/09/05 12:09:33;;;;;;;6.45;3.47;;;742.50;2227.20;;;;;;5051494;28;20029;-83
2022/09/05 12:12:25;;;;;;;5.70;2.90;;;742.60;2252.80;;;;;;5040499;28;20475;-83
2022/09/05 12:15:24;;;;;;;6.80;3.60;;;717.20;2201.60;;;;;;5038655;28;20018;-81
2022/09/05 12:18:09;;;;;;;4.00;2.83;;;;;;;;;;5038233;28;20483;-83
2022/09/05 12:21:01;;;;;;;4.43;2.70;;;742.50;2099.20;;;;;;5042636;28;20044;-82
2022/09/05 12:23:46;;;;;;;5.88;3.20;;;;;;;;;;5042563;28;20029;-83
2022/09/05 12:26:31;;;;;;;6.70;2.90;;;717.10;2124.80;;;;;;5039121;28;20382;-83
2022/09/05 12:29:07;;;;;;;4.72;2.80;;;692.00;2099.20;;;;;;5046231;28;20382;-81
2022/09/05 12:31:45;;;;;;;11.63;3.20;;;692.10;2073.60;;;;;;5082676;28;20033;-83
2022/09/05 12:34:17;;;;;;;5.53;2.95;;;717.50;2073.60;;;;;;5051220;28;20068;-83
2022/09/05 12:36:49;;;;;;;4.18;2.80;;;742.60;2099.20;;;;;;5042306;28;20049;-82
2022/09/05 12:39:27;;;;;;;3.97;2.60;;;743.10;2124.80;;;;;;5043260;28;20057;-83
2022/09/05 12:42:22;;;;;;;5.30;3.00;;;743.30;1996.80;;;;;;5037024;28;20029;-83
2022/09/05 12:45:10;;;;;;;5.28;2.67;;;768.10;2073.60;;;;;;5031497;28;20060;-82
2022/09/05 12:48:09;;;;;;;3.78;2.17;;;742.90;2073.60;;;;;;5037490;28;20088;-82
2022/09/05 12:50:56;;;;;;;4.45;2.80;;;743.10;2073.60;;;;;;5030639;28;20045;-83
2022/09/05 12:53:33;;;;;;;5.47;3.13;;;768.70;2022.40;;;;;;5041438;28;20462;-85
2022/09/05 12:56:07;;;;;;;5.75;2.65;;;768.50;1971.20;;;;;;5043220;28;20064;-83
2022/09/05 12:58:35;;;;;;;4.45;2.50;;;768.70;1996.80;;;;;;5068826;28;20096;-84
2022/09/05 13:01:16;;;;;;;4.43;2.55;;;793.90;1971.20;;;;;;5052695;28;20120;-85
2022/09/05 13:04:03;;;;;;;4.85;2.95;;;794.20;2022.40;;;;;;5038150;28;20033;-85
2022/09/05 13:06:37;;;;;;;5.70;2.38;;;793.90;1894.40;;;;;;5035556;28;20024;-85
2022/09/05 13:09:18;;;;;;;3.70;2.65;;;794.10;1945.60;;;;;;5042662;28;20033;-85
2022/09/05 13:12:02;;;;;;;5.72;2.78;;;768.40;1894.40;;;;;;5039795;28;20022;-85
2022/09/05 13:14:35;;;;;;;3.47;2.38;;;768.10;1996.80;;;;;;5039339;28;20025;-85
2022/09/05 13:17:05;;;;;;;3.50;2.35;;;742.70;1996.80;;;;;;5069953;28;20039;-84
2022/09/05 13:19:42;;;;;;;4.40;2.50;;;743.30;2048.00;;;;;;5047615;28;20041;-85
2022/09/05 13:22:13;;;;;;;4.47;2.42;;;768.80;1945.60;;;;;;5039487;28;20025;-84
2022/09/05 13:24:44;;;;;;;3.78;2.60;;;794.00;1894.40;;;;;;5040530;28;20040;-85
2022/09/05 13:27:30;;;;;;;3.70;2.38;;;768.90;1843.20;;;;;;5043953;28;20107;-85
2022/09/05 13:30:06;;;;;;;3.58;2.47;;;794.10;1894.40;;;;;;5038501;28;20528;-85